sensor_id;sensor_type;location;lat;lon;timestamp;P1;durP1;ratioP1;P2;durP2;ratioP2
71104;SDS011;58760;48.716;8.962;2023-02-26T00:01:20;5.38;;;1.98;;
71104;SDS011;58760;48.716;8.962;2023-02-26T00:03:48;6.35;;;1.77;;
71104;SDS011;58760;48.716;8.962;2023-02-26T00:06:14;9.13;;;2.20;;
71104;SDS011;58760;48.716;8.962;2023-02-26T00:08:39;4.68;;;1.80;;
71104;SDS011;58760;48.716;8.962;2023-02-26T00:11:05;5.78;;;1.48;;
71104;SDS011;58760;48.716;8.962;2023-02-26T00:13:31;6.65;;;1.73;;
71104;SDS011;58760;48.716;8.962;2023-02-26T00:16:00;6.45;;;1.90;;
71104;SDS011;58760;48.716;8.962;2023-02-26T00:18:26;5.90;;;1.63;;
71104;SDS011;58760;48.716;8.962;2023-02-26T00:20:52;5.95;;;1.67;;
71104;SDS011;58760;48.716;8.962;2023-02-26T00:23:18;3.50;;;1.40;;
71104;SDS011;58760;48.716;8.962;2023-02-26T00:25:44;5.78;;;1.77;;
71104;SDS011;58760;48.716;8.962;2023-02-26T00:28:09;5.70;;;1.40;;
71104;SDS011;58760;48.716;8.962;2023-02-26T00:30:35;5.32;;;1.40;;
71104;SDS011;58760;48.716;8.962;2023-02-26T00:33:02;4.18;;;1.48;;
71104;SDS011;58760;48.716;8.962;2023-02-26T00:35:27;5.15;;;1.42;;
71104;SDS011;58760;48.716;8.962;2023-02-26T00:40:33;7.07;;;1.48;;
71104;SDS011;58760;48.716;8.962;2023-02-26T00:43:00;5.00;;;1.50;;
71104;SDS011;58760;48.716;8.962;2023-02-26T00:45:30;5.72;;;1.52;;
71104;SDS011;58760;48.716;8.962;2023-02-26T00:50:46;5.00;;;1.50;;
71104;SDS011;58760;48.716;8.962;2023-02-26T00:54:22;4.03;;;1.33;;
71104;SDS011;58760;48.716;8.962;2023-02-26T00:56:25;4.82;;;1.48;;
71104;SDS011;58760;48.716;8.962;2023-02-26T00:58:50;4.32;;;1.60;;
71104;SDS011;58760;48.716;8.962;2023-02-26T01:01:15;7.47;;;1.63;;
71104;SDS011;58760;48.716;8.962;2023-02-26T01:03:41;3.63;;;1.33;;
71104;SDS011;58760;48.716;8.962;2023-02-26T01:06:10;4.97;;;1.45;;
71104;SDS011;58760;48.716;8.962;2023-02-26T01:08:44;7.78;;;1.88;;
71104;SDS011;58760;48.716;8.962;2023-02-26T01:11:30;5.53;;;2.00;;
71104;SDS011;58760;48.716;8.962;2023-02-26T01:13:56;6.30;;;1.65;;
71104;SDS011;58760;48.716;8.962;2023-02-26T01:16:23;5.25;;;1.50;;
71104;SDS011;58760;48.716;8.962;2023-02-26T01:18:55;3.30;;;1.40;;
71104;SDS011;58760;48.716;8.962;2023-02-26T01:21:30;8.18;;;1.50;;
71104;SDS011;58760;48.716;8.962;2023-02-26T01:24:00;6.68;;;1.83;;
71104;SDS011;58760;48.716;8.962;2023-02-26T01:26:29;6.85;;;1.63;;
71104;SDS011;58760;48.716;8.962;2023-02-26T01:28:55;4.68;;;1.42;;
71104;SDS011;58760;48.716;8.962;2023-02-26T01:34:18;5.82;;;1.58;;
71104;SDS011;58760;48.716;8.962;2023-02-26T01:36:53;5.53;;;1.63;;
71104;SDS011;58760;48.716;8.962;2023-02-26T01:42:05;3.63;;;1.20;;
71104;SDS011;58760;48.716;8.962;2023-02-26T01:47:25;4.40;;;1.40;;
71104;SDS011;58760;48.716;8.962;2023-02-26T01:49:52;6.10;;;1.50;;
71104;SDS011;58760;48.716;8.962;2023-02-26T01:55:18;3.88;;;1.38;;
71104;SDS011;58760;48.716;8.962;2023-02-26T01:57:46;5.05;;;1.50;;
71104;SDS011;58760;48.716;8.962;2023-02-26T02:00:13;8.88;;;1.73;;
71104;SDS011;58760;48.716;8.962;2023-02-26T02:05:13;7.60;;;2.00;;
71104;SDS011;58760;48.716;8.962;2023-02-26T02:07:43;3.97;;;1.55;;
71104;SDS011;58760;48.716;8.962;2023-02-26T02:10:09;7.00;;;1.70;;
71104;SDS011;58760;48.716;8.962;2023-02-26T02:29:02;5.07;;;1.42;;
71104;SDS011;58760;48.716;8.962;2023-02-26T02:34:50;4.47;;;1.40;;
71104;SDS011;58760;48.716;8.962;2023-02-26T02:37:26;8.48;;;1.65;;
71104;SDS011;58760;48.716;8.962;2023-02-26T02:40:48;3.20;;;1.13;;
71104;SDS011;58760;48.716;8.962;2023-02-26T02:42:58;5.28;;;1.58;;
71104;SDS011;58760;48.716;8.962;2023-02-26T02:45:30;5.38;;;1.60;;
71104;SDS011;58760;48.716;8.962;2023-02-26T02:48:05;3.33;;;1.40;;
71104;SDS011;58760;48.716;8.962;2023-02-26T02:50:42;10.07;;;1.70;;
71104;SDS011;58760;48.716;8.962;2023-02-26T02:55:58;4.53;;;1.20;;
71104;SDS011;58760;48.716;8.962;2023-02-26T02:58:30;5.55;;;1.52;;
71104;SDS011;58760;48.716;8.962;2023-02-26T03:01:03;5.38;;;1.48;;
71104;SDS011;58760;48.716;8.962;2023-02-26T03:06:06;7.07;;;2.03;;
71104;SDS011;58760;48.716;8.962;2023-02-26T03:08:33;6.28;;;1.60;;
71104;SDS011;58760;48.716;8.962;2023-02-26T03:11:02;6.70;;;2.00;;
71104;SDS011;58760;48.716;8.962;2023-02-26T03:13:28;6.28;;;1.50;;
71104;SDS011;58760;48.716;8.962;2023-02-26T03:21:44;8.15;;;2.08;;
71104;SDS011;58760;48.716;8.962;2023-02-26T03:24:36;4.40;;;1.60;;
71104;SDS011;58760;48.716;8.962;2023-02-26T03:27:14;7.20;;;2.03;;
71104;SDS011;58760;48.716;8.962;2023-02-26T03:32:36;4.82;;;1.70;;
71104;SDS011;58760;48.716;8.962;2023-02-26T03:37:51;5.78;;;1.67;;
71104;SDS011;58760;48.716;8.962;2023-02-26T03:40:23;6.45;;;1.55;;
71104;SDS011;58760;48.716;8.962;2023-02-26T03:42:56;6.25;;;1.67;;
71104;SDS011;58760;48.716;8.962;2023-02-26T03:45:34;6.15;;;1.70;;
71104;SDS011;58760;48.716;8.962;2023-02-26T03:48:03;4.50;;;1.60;;
71104;SDS011;58760;48.716;8.962;2023-02-26T03:50:51;3.45;;;1.23;;
71104;SDS011;58760;48.716;8.962;2023-02-26T03:53:23;6.63;;;1.40;;
71104;SDS011;58760;48.716;8.962;2023-02-26T03:55:54;5.00;;;1.52;;
71104;SDS011;58760;48.716;8.962;2023-02-26T03:58:28;4.97;;;1.58;;
71104;SDS011;58760;48.716;8.962;2023-02-26T04:00:58;6.45;;;1.58;;
71104;SDS011;58760;48.716;8.962;2023-02-26T04:03:29;6.18;;;1.55;;
71104;SDS011;58760;48.716;8.962;2023-02-26T04:06:00;4.93;;;1.52;;
71104;SDS011;58760;48.716;8.962;2023-02-26T04:08:27;3.78;;;1.40;;
71104;SDS011;58760;48.716;8.962;2023-02-26T04:13:21;7.70;;;1.73;;
71104;SDS011;58760;48.716;8.962;2023-02-26T04:15:46;4.30;;;1.70;;
71104;SDS011;58760;48.716;8.962;2023-02-26T04:18:12;4.40;;;1.42;;
71104;SDS011;58760;48.716;8.962;2023-02-26T04:20:37;4.07;;;1.50;;
71104;SDS011;58760;48.716;8.962;2023-02-26T04:23:02;5.65;;;1.70;;
71104;SDS011;58760;48.716;8.962;2023-02-26T04:25:28;7.40;;;1.80;;
71104;SDS011;58760;48.716;8.962;2023-02-26T04:27:53;4.38;;;1.63;;
71104;SDS011;58760;48.716;8.962;2023-02-26T04:30:18;7.38;;;1.75;;
71104;SDS011;58760;48.716;8.962;2023-02-26T04:32:44;7.43;;;2.13;;
71104;SDS011;58760;48.716;8.962;2023-02-26T04:35:09;5.82;;;1.60;;
71104;SDS011;58760;48.716;8.962;2023-02-26T04:37:35;6.22;;;1.88;;
71104;SDS011;58760;48.716;8.962;2023-02-26T04:40:00;6.40;;;1.80;;
71104;SDS011;58760;48.716;8.962;2023-02-26T04:42:26;6.68;;;1.85;;
71104;SDS011;58760;48.716;8.962;2023-02-26T04:44:51;5.30;;;1.63;;
71104;SDS011;58760;48.716;8.962;2023-02-26T04:47:16;4.20;;;1.42;;
71104;SDS011;58760;48.716;8.962;2023-02-26T04:49:42;5.63;;;1.90;;
71104;SDS011;58760;48.716;8.962;2023-02-26T04:52:07;7.72;;;1.73;;
71104;SDS011;58760;48.716;8.962;2023-02-26T04:54:32;5.05;;;1.50;;
71104;SDS011;58760;48.716;8.962;2023-02-26T04:56:58;7.35;;;1.88;;
71104;SDS011;58760;48.716;8.962;2023-02-26T04:59:23;5.38;;;1.52;;
71104;SDS011;58760;48.716;8.962;2023-02-26T05:01:49;4.93;;;1.55;;
71104;SDS011;58760;48.716;8.962;2023-02-26T05:04:14;6.68;;;2.10;;
71104;SDS011;58760;48.716;8.962;2023-02-26T05:06:39;5.57;;;1.73;;
71104;SDS011;58760;48.716;8.962;2023-02-26T05:09:05;8.05;;;2.20;;
71104;SDS011;58760;48.716;8.962;2023-02-26T05:11:31;5.65;;;1.65;;
71104;SDS011;58760;48.716;8.962;2023-02-26T05:13:57;4.85;;;1.73;;
71104;SDS011;58760;48.716;8.962;2023-02-26T05:16:22;7.20;;;1.88;;
71104;SDS011;58760;48.716;8.962;2023-02-26T05:18:47;4.60;;;1.52;;
71104;SDS011;58760;48.716;8.962;2023-02-26T05:21:13;5.05;;;1.70;;
71104;SDS011;58760;48.716;8.962;2023-02-26T05:23:38;7.53;;;2.15;;
71104;SDS011;58760;48.716;8.962;2023-02-26T05:26:03;5.68;;;2.00;;
71104;SDS011;58760;48.716;8.962;2023-02-26T05:28:29;8.38;;;1.88;;
71104;SDS011;58760;48.716;8.962;2023-02-26T05:30:55;8.43;;;2.28;;
71104;SDS011;58760;48.716;8.962;2023-02-26T05:33:21;7.60;;;1.73;;
71104;SDS011;58760;48.716;8.962;2023-02-26T05:35:46;4.93;;;1.80;;
71104;SDS011;58760;48.716;8.962;2023-02-26T05:38:13;5.75;;;2.22;;
71104;SDS011;58760;48.716;8.962;2023-02-26T05:40:39;7.35;;;2.13;;
71104;SDS011;58760;48.716;8.962;2023-02-26T05:43:04;6.55;;;2.10;;
71104;SDS011;58760;48.716;8.962;2023-02-26T05:45:30;7.03;;;2.25;;
71104;SDS011;58760;48.716;8.962;2023-02-26T05:47:55;5.55;;;1.80;;
71104;SDS011;58760;48.716;8.962;2023-02-26T05:50:20;4.93;;;1.83;;
71104;SDS011;58760;48.716;8.962;2023-02-26T05:52:46;7.28;;;1.88;;
71104;SDS011;58760;48.716;8.962;2023-02-26T05:55:11;7.93;;;1.98;;
71104;SDS011;58760;48.716;8.962;2023-02-26T05:57:37;11.52;;;2.30;;
71104;SDS011;58760;48.716;8.962;2023-02-26T06:00:03;7.63;;;2.00;;
71104;SDS011;58760;48.716;8.962;2023-02-26T06:04:55;6.53;;;2.00;;
71104;SDS011;58760;48.716;8.962;2023-02-26T06:07:20;8.48;;;2.65;;
71104;SDS011;58760;48.716;8.962;2023-02-26T06:09:45;8.35;;;2.80;;
71104;SDS011;58760;48.716;8.962;2023-02-26T06:12:11;8.95;;;2.13;;
71104;SDS011;58760;48.716;8.962;2023-02-26T06:14:36;10.27;;;2.30;;
71104;SDS011;58760;48.716;8.962;2023-02-26T06:17:02;8.50;;;2.60;;
71104;SDS011;58760;48.716;8.962;2023-02-26T06:19:28;7.53;;;2.63;;
71104;SDS011;58760;48.716;8.962;2023-02-26T06:21:53;6.70;;;2.00;;
71104;SDS011;58760;48.716;8.962;2023-02-26T06:24:19;9.02;;;2.28;;
71104;SDS011;58760;48.716;8.962;2023-02-26T06:26:44;6.28;;;1.85;;
71104;SDS011;58760;48.716;8.962;2023-02-26T06:29:09;5.40;;;2.05;;
71104;SDS011;58760;48.716;8.962;2023-02-26T06:31:35;10.38;;;2.90;;
71104;SDS011;58760;48.716;8.962;2023-02-26T06:34:00;7.00;;;2.20;;
71104;SDS011;58760;48.716;8.962;2023-02-26T06:36:26;6.53;;;2.20;;
71104;SDS011;58760;48.716;8.962;2023-02-26T06:38:51;8.30;;;1.98;;
71104;SDS011;58760;48.716;8.962;2023-02-26T06:41:17;11.13;;;2.72;;
71104;SDS011;58760;48.716;8.962;2023-02-26T06:43:42;7.20;;;2.10;;
71104;SDS011;58760;48.716;8.962;2023-02-26T06:46:07;5.97;;;1.85;;
71104;SDS011;58760;48.716;8.962;2023-02-26T06:48:33;7.90;;;2.40;;
71104;SDS011;58760;48.716;8.962;2023-02-26T06:50:58;5.53;;;2.05;;
71104;SDS011;58760;48.716;8.962;2023-02-26T06:53:23;6.57;;;1.95;;
71104;SDS011;58760;48.716;8.962;2023-02-26T06:55:49;7.90;;;2.10;;
71104;SDS011;58760;48.716;8.962;2023-02-26T06:58:16;7.35;;;2.28;;
71104;SDS011;58760;48.716;8.962;2023-02-26T07:00:42;8.52;;;2.35;;
71104;SDS011;58760;48.716;8.962;2023-02-26T07:03:11;5.90;;;1.98;;
71104;SDS011;58760;48.716;8.962;2023-02-26T07:05:38;7.78;;;2.05;;
71104;SDS011;58760;48.716;8.962;2023-02-26T07:08:04;7.60;;;2.28;;
71104;SDS011;58760;48.716;8.962;2023-02-26T07:10:34;6.50;;;2.00;;
71104;SDS011;58760;48.716;8.962;2023-02-26T07:13:00;5.72;;;1.80;;
71104;SDS011;58760;48.716;8.962;2023-02-26T07:15:25;7.60;;;1.98;;
71104;SDS011;58760;48.716;8.962;2023-02-26T07:17:51;9.88;;;2.22;;
71104;SDS011;58760;48.716;8.962;2023-02-26T07:20:17;6.30;;;2.40;;
71104;SDS011;58760;48.716;8.962;2023-02-26T07:22:42;7.53;;;1.90;;
71104;SDS011;58760;48.716;8.962;2023-02-26T07:25:09;8.27;;;1.92;;
71104;SDS011;58760;48.716;8.962;2023-02-26T07:27:35;7.97;;;2.03;;
71104;SDS011;58760;48.716;8.962;2023-02-26T07:30:00;7.15;;;2.30;;
71104;SDS011;58760;48.716;8.962;2023-02-26T07:32:27;4.72;;;1.50;;
71104;SDS011;58760;48.716;8.962;2023-02-26T07:34:52;6.93;;;1.83;;
71104;SDS011;58760;48.716;8.962;2023-02-26T07:37:18;7.03;;;1.70;;
71104;SDS011;58760;48.716;8.962;2023-02-26T07:39:43;5.68;;;1.67;;
71104;SDS011;58760;48.716;8.962;2023-02-26T07:42:09;6.50;;;1.55;;
71104;SDS011;58760;48.716;8.962;2023-02-26T07:44:34;5.25;;;1.50;;
71104;SDS011;58760;48.716;8.962;2023-02-26T07:47:00;6.10;;;1.88;;
71104;SDS011;58760;48.716;8.962;2023-02-26T07:49:25;5.88;;;1.80;;
71104;SDS011;58760;48.716;8.962;2023-02-26T07:51:51;8.18;;;1.67;;
71104;SDS011;58760;48.716;8.962;2023-02-26T07:54:16;5.47;;;1.58;;
71104;SDS011;58760;48.716;8.962;2023-02-26T07:56:42;5.97;;;1.70;;
71104;SDS011;58760;48.716;8.962;2023-02-26T07:59:08;6.15;;;2.05;;
71104;SDS011;58760;48.716;8.962;2023-02-26T08:01:33;6.55;;;1.70;;
71104;SDS011;58760;48.716;8.962;2023-02-26T08:03:59;9.23;;;1.65;;
71104;SDS011;58760;48.716;8.962;2023-02-26T08:06:25;4.13;;;1.50;;
71104;SDS011;58760;48.716;8.962;2023-02-26T08:08:50;4.95;;;1.50;;
71104;SDS011;58760;48.716;8.962;2023-02-26T08:11:16;7.10;;;1.50;;
71104;SDS011;58760;48.716;8.962;2023-02-26T08:13:41;6.57;;;1.63;;
71104;SDS011;58760;48.716;8.962;2023-02-26T08:16:06;4.97;;;1.70;;
71104;SDS011;58760;48.716;8.962;2023-02-26T08:18:32;6.70;;;1.60;;
71104;SDS011;58760;48.716;8.962;2023-02-26T08:20:57;6.13;;;1.60;;
71104;SDS011;58760;48.716;8.962;2023-02-26T08:23:23;7.80;;;2.70;;
71104;SDS011;58760;48.716;8.962;2023-02-26T08:25:48;8.35;;;2.10;;
71104;SDS011;58760;48.716;8.962;2023-02-26T08:28:14;8.18;;;2.17;;
71104;SDS011;58760;48.716;8.962;2023-02-26T08:30:39;9.05;;;2.47;;
71104;SDS011;58760;48.716;8.962;2023-02-26T08:33:05;9.90;;;2.20;;
71104;SDS011;58760;48.716;8.962;2023-02-26T08:35:30;7.65;;;2.22;;
71104;SDS011;58760;48.716;8.962;2023-02-26T08:37:55;6.88;;;2.20;;
71104;SDS011;58760;48.716;8.962;2023-02-26T08:40:21;8.43;;;2.20;;
71104;SDS011;58760;48.716;8.962;2023-02-26T08:42:47;8.68;;;2.38;;
71104;SDS011;58760;48.716;8.962;2023-02-26T08:45:13;7.95;;;1.90;;
71104;SDS011;58760;48.716;8.962;2023-02-26T08:47:38;7.78;;;2.30;;
71104;SDS011;58760;48.716;8.962;2023-02-26T08:50:07;7.93;;;2.83;;
71104;SDS011;58760;48.716;8.962;2023-02-26T08:52:34;7.63;;;1.80;;
71104;SDS011;58760;48.716;8.962;2023-02-26T08:55:00;5.72;;;1.55;;
71104;SDS011;58760;48.716;8.962;2023-02-26T08:57:25;6.38;;;1.70;;
71104;SDS011;58760;48.716;8.962;2023-02-26T08:59:50;5.25;;;1.80;;
71104;SDS011;58760;48.716;8.962;2023-02-26T09:02:16;4.70;;;1.55;;
71104;SDS011;58760;48.716;8.962;2023-02-26T09:04:41;5.38;;;1.65;;
71104;SDS011;58760;48.716;8.962;2023-02-26T09:07:06;6.05;;;1.70;;
71104;SDS011;58760;48.716;8.962;2023-02-26T09:09:32;6.53;;;1.98;;
71104;SDS011;58760;48.716;8.962;2023-02-26T09:11:57;4.63;;;1.63;;
71104;SDS011;58760;48.716;8.962;2023-02-26T09:14:23;7.43;;;2.10;;
71104;SDS011;58760;48.716;8.962;2023-02-26T09:16:48;7.28;;;1.70;;
71104;SDS011;58760;48.716;8.962;2023-02-26T09:19:13;7.80;;;1.73;;
71104;SDS011;58760;48.716;8.962;2023-02-26T09:21:39;5.35;;;1.40;;
71104;SDS011;58760;48.716;8.962;2023-02-26T09:24:04;5.35;;;1.20;;
71104;SDS011;58760;48.716;8.962;2023-02-26T09:26:30;3.50;;;1.20;;
71104;SDS011;58760;48.716;8.962;2023-02-26T09:28:55;6.72;;;1.35;;
71104;SDS011;58760;48.716;8.962;2023-02-26T09:31:21;6.97;;;1.85;;
71104;SDS011;58760;48.716;8.962;2023-02-26T09:33:46;4.25;;;1.13;;
71104;SDS011;58760;48.716;8.962;2023-02-26T09:36:11;8.73;;;2.03;;
71104;SDS011;58760;48.716;8.962;2023-02-26T09:38:37;4.93;;;1.45;;
71104;SDS011;58760;48.716;8.962;2023-02-26T09:41:12;3.58;;;1.48;;
71104;SDS011;58760;48.716;8.962;2023-02-26T09:49:05;4.97;;;1.27;;
71104;SDS011;58760;48.716;8.962;2023-02-26T09:51:46;4.15;;;1.33;;
71104;SDS011;58760;48.716;8.962;2023-02-26T09:54:21;7.97;;;1.90;;
71104;SDS011;58760;48.716;8.962;2023-02-26T09:56:48;5.30;;;1.45;;
71104;SDS011;58760;48.716;8.962;2023-02-26T09:59:16;4.93;;;1.70;;
71104;SDS011;58760;48.716;8.962;2023-02-26T10:10:08;9.48;;;1.70;;
71104;SDS011;58760;48.716;8.962;2023-02-26T10:12:43;5.93;;;1.50;;
71104;SDS011;58760;48.716;8.962;2023-02-26T10:15:11;3.45;;;1.30;;
71104;SDS011;58760;48.716;8.962;2023-02-26T10:20:41;3.55;;;1.35;;
71104;SDS011;58760;48.716;8.962;2023-02-26T10:23:19;5.60;;;1.30;;
71104;SDS011;58760;48.716;8.962;2023-02-26T10:25:52;4.82;;;1.23;;
71104;SDS011;58760;48.716;8.962;2023-02-26T10:28:38;4.28;;;1.60;;
71104;SDS011;58760;48.716;8.962;2023-02-26T10:31:38;4.95;;;1.55;;
71104;SDS011;58760;48.716;8.962;2023-02-26T10:34:19;6.47;;;1.73;;
71104;SDS011;58760;48.716;8.962;2023-02-26T10:42:12;5.72;;;1.55;;
71104;SDS011;58760;48.716;8.962;2023-02-26T10:44:58;7.78;;;2.03;;
71104;SDS011;58760;48.716;8.962;2023-02-26T10:47:42;3.97;;;1.70;;
71104;SDS011;58760;48.716;8.962;2023-02-26T10:50:14;7.63;;;1.63;;
71104;SDS011;58760;48.716;8.962;2023-02-26T10:52:42;5.88;;;1.85;;
71104;SDS011;58760;48.716;8.962;2023-02-26T10:55:23;5.45;;;1.48;;
71104;SDS011;58760;48.716;8.962;2023-02-26T10:57:51;7.18;;;1.80;;
71104;SDS011;58760;48.716;8.962;2023-02-26T11:00:22;5.30;;;1.60;;
71104;SDS011;58760;48.716;8.962;2023-02-26T11:02:48;3.55;;;1.40;;
71104;SDS011;58760;48.716;8.962;2023-02-26T11:05:19;4.05;;;1.70;;
71104;SDS011;58760;48.716;8.962;2023-02-26T11:07:49;4.22;;;1.70;;
71104;SDS011;58760;48.716;8.962;2023-02-26T11:10:24;7.80;;;1.67;;
71104;SDS011;58760;48.716;8.962;2023-02-26T11:12:52;4.35;;;1.50;;
71104;SDS011;58760;48.716;8.962;2023-02-26T11:15:19;5.78;;;1.90;;
71104;SDS011;58760;48.716;8.962;2023-02-26T11:17:47;4.10;;;1.55;;
71104;SDS011;58760;48.716;8.962;2023-02-26T11:23:01;3.22;;;1.35;;
71104;SDS011;58760;48.716;8.962;2023-02-26T11:25:30;4.45;;;1.40;;
71104;SDS011;58760;48.716;8.962;2023-02-26T11:30:33;4.35;;;1.58;;
71104;SDS011;58760;48.716;8.962;2023-02-26T11:33:18;4.53;;;1.40;;
71104;SDS011;58760;48.716;8.962;2023-02-26T11:35:48;7.15;;;2.20;;
71104;SDS011;58760;48.716;8.962;2023-02-26T11:38:21;7.38;;;2.70;;
71104;SDS011;58760;48.716;8.962;2023-02-26T11:40:54;4.75;;;1.60;;
71104;SDS011;58760;48.716;8.962;2023-02-26T11:43:21;4.93;;;1.40;;
71104;SDS011;58760;48.716;8.962;2023-02-26T11:45:51;4.55;;;1.23;;
71104;SDS011;58760;48.716;8.962;2023-02-26T11:48:22;2.60;;;1.20;;
71104;SDS011;58760;48.716;8.962;2023-02-26T11:50:53;3.15;;;1.05;;
71104;SDS011;58760;48.716;8.962;2023-02-26T11:53:29;3.80;;;1.20;;
71104;SDS011;58760;48.716;8.962;2023-02-26T11:56:00;2.67;;;1.20;;
71104;SDS011;58760;48.716;8.962;2023-02-26T11:58:29;3.10;;;1.10;;
71104;SDS011;58760;48.716;8.962;2023-02-26T12:01:02;2.78;;;1.30;;
71104;SDS011;58760;48.716;8.962;2023-02-26T12:03:31;3.05;;;1.30;;
71104;SDS011;58760;48.716;8.962;2023-02-26T12:05:58;3.63;;;1.40;;
71104;SDS011;58760;48.716;8.962;2023-02-26T12:08:30;2.50;;;1.10;;
71104;SDS011;58760;48.716;8.962;2023-02-26T12:11:19;5.50;;;1.67;;
71104;SDS011;58760;48.716;8.962;2023-02-26T12:19:17;3.92;;;1.38;;
71104;SDS011;58760;48.716;8.962;2023-02-26T12:22:18;3.22;;;1.30;;
71104;SDS011;58760;48.716;8.962;2023-02-26T12:33:30;2.50;;;1.10;;
71104;SDS011;58760;48.716;8.962;2023-02-26T12:43:54;2.53;;;1.00;;
71104;SDS011;58760;48.716;8.962;2023-02-26T12:46:37;4.32;;;1.30;;
71104;SDS011;58760;48.716;8.962;2023-02-26T12:54:53;5.15;;;1.40;;
71104;SDS011;58760;48.716;8.962;2023-02-26T12:57:42;2.78;;;0.93;;
71104;SDS011;58760;48.716;8.962;2023-02-26T13:10:50;2.22;;;1.00;;
71104;SDS011;58760;48.716;8.962;2023-02-26T13:16:07;2.83;;;1.00;;
71104;SDS011;58760;48.716;8.962;2023-02-26T13:21:32;4.38;;;1.08;;
71104;SDS011;58760;48.716;8.962;2023-02-26T13:24:03;2.40;;;1.10;;
71104;SDS011;58760;48.716;8.962;2023-02-26T13:26:32;2.40;;;1.10;;
71104;SDS011;58760;48.716;8.962;2023-02-26T13:29:17;4.13;;;1.20;;
71104;SDS011;58760;48.716;8.962;2023-02-26T13:31:58;2.85;;;1.10;;
71104;SDS011;58760;48.716;8.962;2023-02-26T13:37:30;3.10;;;1.00;;
71104;SDS011;58760;48.716;8.962;2023-02-26T13:40:59;1.88;;;0.90;;
71104;SDS011;58760;48.716;8.962;2023-02-26T13:43:05;2.63;;;1.00;;
71104;SDS011;58760;48.716;8.962;2023-02-26T13:48:56;1.95;;;0.90;;
71104;SDS011;58760;48.716;8.962;2023-02-26T14:01:48;2.67;;;1.00;;
71104;SDS011;58760;48.716;8.962;2023-02-26T14:06:46;2.03;;;0.90;;
71104;SDS011;58760;48.716;8.962;2023-02-26T14:09:58;2.47;;;0.90;;
71104;SDS011;58760;48.716;8.962;2023-02-26T14:20:13;2.70;;;0.95;;
71104;SDS011;58760;48.716;8.962;2023-02-26T14:22:45;2.80;;;1.20;;
71104;SDS011;58760;48.716;8.962;2023-02-26T14:30:46;6.57;;;2.08;;
71104;SDS011;58760;48.716;8.962;2023-02-26T14:33:14;4.75;;;1.30;;
71104;SDS011;58760;48.716;8.962;2023-02-26T14:35:43;1.95;;;0.80;;
71104;SDS011;58760;48.716;8.962;2023-02-26T14:38:33;2.17;;;0.90;;
71104;SDS011;58760;48.716;8.962;2023-02-26T14:41:04;2.50;;;1.13;;
71104;SDS011;58760;48.716;8.962;2023-02-26T14:43:38;2.03;;;0.88;;
71104;SDS011;58760;48.716;8.962;2023-02-26T14:46:07;1.55;;;0.77;;
71104;SDS011;58760;48.716;8.962;2023-02-26T14:48:34;1.92;;;0.80;;
71104;SDS011;58760;48.716;8.962;2023-02-26T14:56:47;3.17;;;0.93;;
71104;SDS011;58760;48.716;8.962;2023-02-26T15:07:42;1.45;;;0.60;;
71104;SDS011;58760;48.716;8.962;2023-02-26T15:13:29;3.55;;;1.30;;
71104;SDS011;58760;48.716;8.962;2023-02-26T15:18:53;2.00;;;0.80;;
71104;SDS011;58760;48.716;8.962;2023-02-26T15:21:33;3.50;;;0.73;;
71104;SDS011;58760;48.716;8.962;2023-02-26T15:24:08;1.88;;;0.77;;
71104;SDS011;58760;48.716;8.962;2023-02-26T15:26:37;2.33;;;0.80;;
71104;SDS011;58760;48.716;8.962;2023-02-26T15:29:09;2.67;;;0.95;;
71104;SDS011;58760;48.716;8.962;2023-02-26T15:31:48;5.25;;;1.45;;
71104;SDS011;58760;48.716;8.962;2023-02-26T15:34:18;2.10;;;0.80;;
71104;SDS011;58760;48.716;8.962;2023-02-26T15:36:45;2.33;;;0.57;;
71104;SDS011;58760;48.716;8.962;2023-02-26T15:39:13;1.40;;;0.70;;
71104;SDS011;58760;48.716;8.962;2023-02-26T15:41:41;1.33;;;0.63;;
71104;SDS011;58760;48.716;8.962;2023-02-26T15:46:39;4.78;;;0.80;;
71104;SDS011;58760;48.716;8.962;2023-02-26T15:49:19;5.45;;;1.35;;
71104;SDS011;58760;48.716;8.962;2023-02-26T15:51:57;1.60;;;0.93;;
71104;SDS011;58760;48.716;8.962;2023-02-26T15:54:27;6.75;;;1.77;;
71104;SDS011;58760;48.716;8.962;2023-02-26T15:56:59;4.00;;;0.90;;
71104;SDS011;58760;48.716;8.962;2023-02-26T15:59:27;4.10;;;1.38;;
71104;SDS011;58760;48.716;8.962;2023-02-26T16:01:55;4.30;;;1.42;;
71104;SDS011;58760;48.716;8.962;2023-02-26T16:04:21;2.15;;;0.95;;
71104;SDS011;58760;48.716;8.962;2023-02-26T16:06:48;2.95;;;1.10;;
71104;SDS011;58760;48.716;8.962;2023-02-26T16:11:50;4.25;;;1.65;;
71104;SDS011;58760;48.716;8.962;2023-02-26T16:14:23;4.18;;;1.48;;
71104;SDS011;58760;48.716;8.962;2023-02-26T16:19:32;2.50;;;1.13;;
71104;SDS011;58760;48.716;8.962;2023-02-26T16:22:06;4.45;;;1.23;;
71104;SDS011;58760;48.716;8.962;2023-02-26T16:24:49;4.18;;;1.23;;
71104;SDS011;58760;48.716;8.962;2023-02-26T16:27:23;2.70;;;0.85;;
71104;SDS011;58760;48.716;8.962;2023-02-26T16:29:52;5.18;;;0.70;;
71104;SDS011;58760;48.716;8.962;2023-02-26T16:32:22;3.67;;;0.85;;
71104;SDS011;58760;48.716;8.962;2023-02-26T16:34:53;2.53;;;1.02;;
71104;SDS011;58760;48.716;8.962;2023-02-26T16:39:56;2.28;;;0.85;;
71104;SDS011;58760;48.716;8.962;2023-02-26T16:45:19;1.77;;;0.85;;
71104;SDS011;58760;48.716;8.962;2023-02-26T16:47:54;3.55;;;0.98;;
71104;SDS011;58760;48.716;8.962;2023-02-26T16:50:26;3.30;;;0.80;;
71104;SDS011;58760;48.716;8.962;2023-02-26T16:52:57;1.17;;;0.68;;
71104;SDS011;58760;48.716;8.962;2023-02-26T16:55:26;2.20;;;0.90;;
71104;SDS011;58760;48.716;8.962;2023-02-26T16:57:53;2.60;;;0.95;;
71104;SDS011;58760;48.716;8.962;2023-02-26T17:00:21;2.25;;;0.88;;
71104;SDS011;58760;48.716;8.962;2023-02-26T17:03:18;1.55;;;0.70;;
71104;SDS011;58760;48.716;8.962;2023-02-26T17:05:57;2.08;;;1.05;;
71104;SDS011;58760;48.716;8.962;2023-02-26T17:08:40;2.78;;;1.00;;
71104;SDS011;58760;48.716;8.962;2023-02-26T17:11:24;4.43;;;0.95;;
71104;SDS011;58760;48.716;8.962;2023-02-26T17:16:45;2.20;;;0.75;;
71104;SDS011;58760;48.716;8.962;2023-02-26T17:19:11;1.70;;;0.70;;
71104;SDS011;58760;48.716;8.962;2023-02-26T17:21:40;2.88;;;0.73;;
71104;SDS011;58760;48.716;8.962;2023-02-26T17:24:09;1.48;;;0.68;;
71104;SDS011;58760;48.716;8.962;2023-02-26T17:26:42;2.08;;;0.90;;
71104;SDS011;58760;48.716;8.962;2023-02-26T17:29:18;2.63;;;0.98;;
71104;SDS011;58760;48.716;8.962;2023-02-26T17:31:48;4.40;;;1.38;;
71104;SDS011;58760;48.716;8.962;2023-02-26T17:34:14;2.35;;;0.85;;
71104;SDS011;58760;48.716;8.962;2023-02-26T17:36:40;1.67;;;0.73;;
71104;SDS011;58760;48.716;8.962;2023-02-26T17:39:05;2.45;;;0.70;;
71104;SDS011;58760;48.716;8.962;2023-02-26T17:41:31;2.45;;;0.70;;
71104;SDS011;58760;48.716;8.962;2023-02-26T17:43:58;2.67;;;0.88;;
71104;SDS011;58760;48.716;8.962;2023-02-26T17:46:24;2.70;;;0.93;;
71104;SDS011;58760;48.716;8.962;2023-02-26T17:48:49;1.25;;;0.73;;
71104;SDS011;58760;48.716;8.962;2023-02-26T17:51:14;2.50;;;0.90;;
71104;SDS011;58760;48.716;8.962;2023-02-26T17:53:40;5.28;;;1.10;;
71104;SDS011;58760;48.716;8.962;2023-02-26T17:56:10;2.47;;;0.95;;
71104;SDS011;58760;48.716;8.962;2023-02-26T17:58:38;5.45;;;1.02;;
71104;SDS011;58760;48.716;8.962;2023-02-26T18:01:04;2.40;;;1.10;;
71104;SDS011;58760;48.716;8.962;2023-02-26T18:03:30;2.17;;;0.98;;
71104;SDS011;58760;48.716;8.962;2023-02-26T18:05:56;2.55;;;0.90;;
71104;SDS011;58760;48.716;8.962;2023-02-26T18:08:23;2.47;;;1.02;;
71104;SDS011;58760;48.716;8.962;2023-02-26T18:10:51;3.30;;;1.08;;
71104;SDS011;58760;48.716;8.962;2023-02-26T18:13:17;3.85;;;1.17;;
71104;SDS011;58760;48.716;8.962;2023-02-26T18:15:43;2.97;;;1.10;;
71104;SDS011;58760;48.716;8.962;2023-02-26T18:18:12;3.30;;;0.98;;
71104;SDS011;58760;48.716;8.962;2023-02-26T18:20:39;2.78;;;0.90;;
71104;SDS011;58760;48.716;8.962;2023-02-26T18:23:05;2.35;;;0.80;;